createdAt,value
2018-01-03T00:01:44.836Z,41.10
2018-01-03T00:04:17.355Z,41.10
2018-01-03T00:06:49.846Z,41.10
2018-01-03T00:09:22.315Z,41.10
2018-01-03T00:11:54.877Z,41.10
2018-01-03T00:14:27.465Z,41.20
2018-01-03T00:17:00.782Z,41.20
2018-01-03T00:19:34.089Z,41.20
2018-01-03T00:22:06.472Z,41.10
2018-01-03T00:24:39.073Z,41.20
2018-01-03T00:27:11.635Z,41.10
2018-01-03T00:29:44.974Z,41.20
2018-01-03T00:32:17.492Z,41.20
2018-01-03T00:34:50.064Z,41.10
2018-01-03T00:37:23.391Z,41.20
2018-01-03T00:39:56.509Z,41.20
2018-01-03T00:42:29.040Z,41.20
2018-01-03T00:45:01.510Z,41.20
2018-01-03T00:47:34.020Z,41.20
2018-01-03T00:50:06.486Z,41.30
2018-01-03T00:52:39.025Z,41.20
2018-01-03T00:55:11.544Z,41.20
2018-01-03T00:57:44.135Z,41.20
2018-01-03T01:00:17.407Z,41.30
2018-01-03T01:02:49.950Z,41.20
2018-01-03T01:05:22.356Z,41.20
2018-01-03T01:07:54.943Z,41.30
2018-01-03T01:10:27.435Z,41.30
2018-01-03T01:13:00.779Z,41.30
2018-01-03T01:15:34.098Z,41.30
2018-01-03T01:18:07.367Z,41.90
2018-01-03T01:20:39.873Z,41.30
2018-01-03T01:23:13.241Z,41.30
2018-01-03T01:25:45.763Z,41.30
2018-01-03T01:28:18.301Z,41.30
2018-01-03T01:30:51.700Z,41.30
2018-01-03T01:33:24.188Z,41.30
2018-01-03T01:35:56.771Z,41.40
2018-01-03T01:38:29.297Z,41.30
2018-01-03T01:41:01.884Z,41.30
2018-01-03T01:43:34.462Z,41.30
2018-01-03T01:46:06.972Z,41.30
2018-01-03T01:48:39.437Z,41.30
2018-01-03T01:51:11.932Z,41.30
2018-01-03T01:53:44.379Z,41.30
2018-01-03T01:56:17.760Z,42.00
2018-01-03T01:58:50.188Z,41.30
2018-01-03T02:01:22.780Z,41.30
2018-01-03T02:03:55.264Z,41.30
2018-01-03T02:06:27.746Z,41.30
2018-01-03T02:09:00.252Z,41.30
2018-01-03T02:11:32.856Z,41.80
2018-01-03T02:14:06.172Z,41.40
2018-01-03T02:16:38.644Z,41.40
2018-01-03T02:19:11.163Z,41.40
2018-01-03T02:21:43.742Z,41.50
2018-01-03T02:24:16.297Z,41.40
2018-01-03T02:26:48.803Z,41.40
2018-01-03T02:29:21.377Z,41.40
2018-01-03T02:31:53.952Z,41.40
2018-01-03T02:34:26.549Z,41.40
2018-01-03T02:36:59.079Z,41.50
2018-01-03T02:39:31.568Z,41.50
2018-01-03T02:42:04.185Z,41.50
2018-01-03T02:44:36.692Z,41.50
2018-01-03T02:47:09.193Z,41.50
2018-01-03T02:49:41.771Z,41.50
2018-01-03T02:52:14.322Z,42.10
2018-01-03T02:54:46.815Z,41.50
2018-01-03T02:57:19.412Z,41.50
2018-01-03T02:59:51.967Z,41.50
2018-01-03T03:02:24.549Z,41.50
2018-01-03T03:04:57.117Z,41.50
2018-01-03T03:07:29.674Z,41.60
2018-01-03T03:10:02.152Z,41.50
2018-01-03T03:12:34.684Z,41.50
2018-01-03T03:15:07.207Z,41.50
2018-01-03T03:17:39.800Z,41.50
2018-01-03T03:20:12.368Z,41.50
2018-01-03T03:22:44.955Z,42.20
2018-01-03T03:25:18.296Z,41.60
2018-01-03T03:27:51.602Z,41.60
2018-01-03T03:30:24.872Z,41.60
2018-01-03T03:32:57.360Z,41.60
2018-01-03T03:35:29.893Z,41.60
2018-01-03T03:38:03.140Z,41.60
2018-01-03T03:40:35.621Z,41.60
2018-01-03T03:43:08.151Z,41.60
2018-01-03T03:45:40.675Z,41.60
2018-01-03T03:48:13.216Z,41.60
2018-01-03T03:50:46.599Z,41.60
2018-01-03T03:53:19.913Z,41.60
2018-01-03T03:55:53.192Z,41.70
2018-01-03T03:58:25.688Z,41.60
2018-01-03T04:00:58.275Z,41.70
2018-01-03T04:03:30.807Z,41.70
2018-01-03T04:06:03.260Z,41.60
2018-01-03T04:08:35.820Z,41.60
2018-01-03T04:11:08.271Z,41.70
2018-01-03T04:13:41.557Z,41.70
2018-01-03T04:16:14.819Z,41.70
2018-01-03T04:18:48.028Z,41.70
2018-01-03T04:21:21.295Z,41.70
2018-01-03T04:23:53.771Z,41.70
2018-01-03T04:26:26.248Z,41.70
2018-01-03T04:28:58.883Z,41.70
2018-01-03T04:31:31.375Z,41.70
2018-01-03T04:34:04.704Z,41.70
2018-01-03T04:36:37.980Z,41.70
2018-01-03T04:39:10.500Z,41.70
2018-01-03T04:41:43.043Z,41.70
2018-01-03T04:44:15.607Z,41.70
2018-01-03T04:46:48.002Z,41.70
2018-01-03T04:49:20.507Z,41.70
2018-01-03T04:51:53.761Z,41.80
2018-01-03T04:54:26.340Z,41.70
2018-01-03T04:56:58.812Z,41.80
2018-01-03T04:59:31.351Z,41.80
2018-01-03T05:02:03.878Z,41.80
2018-01-03T05:04:37.152Z,41.80
2018-01-03T05:07:09.682Z,41.80
2018-01-03T05:09:42.267Z,41.80
2018-01-03T05:12:14.792Z,41.80
2018-01-03T05:14:48.063Z,41.90
2018-01-03T05:17:20.499Z,41.80
2018-01-03T05:19:53.828Z,41.90
2018-01-03T05:22:27.100Z,41.90
2018-01-03T05:25:00.416Z,42.50
2018-01-03T05:27:32.917Z,41.90
2018-01-03T05:30:05.262Z,41.90
2018-01-03T05:32:37.760Z,41.90
2018-01-03T05:35:10.337Z,41.90
2018-01-03T05:37:42.848Z,41.90
2018-01-03T05:40:15.391Z,42.00
2018-01-03T05:42:48.635Z,42.00
2018-01-03T05:45:21.128Z,42.00
2018-01-03T05:47:53.740Z,42.00
2018-01-03T05:50:26.286Z,42.00
2018-01-03T05:52:58.860Z,42.10
2018-01-03T05:55:31.462Z,42.10
2018-01-03T05:58:03.916Z,41.80
2018-01-03T06:00:36.504Z,42.10
2018-01-03T06:03:09.076Z,42.10
2018-01-03T06:05:41.656Z,42.10
2018-01-03T06:08:14.152Z,42.10
2018-01-03T06:10:46.649Z,42.10
2018-01-03T06:13:19.164Z,42.10
2018-01-03T06:15:51.728Z,42.10
2018-01-03T06:18:24.348Z,42.10
2018-01-03T06:20:57.011Z,42.10
2018-01-03T06:23:30.364Z,42.10
2018-01-03T06:26:03.661Z,42.20
2018-01-03T06:28:36.936Z,42.20
2018-01-03T06:31:09.580Z,42.10
2018-01-03T06:33:42.088Z,42.20
2018-01-03T06:36:14.575Z,42.10
2018-01-03T06:38:47.848Z,42.20
2018-01-03T06:41:21.159Z,42.50
2018-01-03T06:43:54.428Z,42.50
2018-01-03T06:46:26.961Z,42.10
2018-01-03T06:48:59.512Z,42.20
2018-01-03T06:51:32.797Z,42.20
2018-01-03T06:54:05.224Z,42.20
2018-01-03T06:56:38.574Z,42.20
2018-01-03T06:59:11.144Z,42.20
2018-01-03T07:01:43.655Z,42.20
2018-01-03T07:04:16.144Z,42.20
2018-01-03T07:06:49.472Z,42.20
2018-01-03T07:09:22.745Z,42.20
2018-01-03T07:11:55.260Z,42.20
2018-01-03T07:14:27.783Z,42.20
2018-01-03T07:17:01.008Z,42.20
2018-01-03T07:19:33.544Z,42.20
2018-01-03T07:22:06.868Z,42.30
2018-01-03T07:24:40.143Z,42.40
2018-01-03T07:27:13.365Z,42.40
2018-01-03T07:29:46.637Z,42.40
2018-01-03T07:32:19.221Z,42.30
2018-01-03T07:34:51.732Z,42.30
2018-01-03T07:37:24.179Z,42.40
2018-01-03T07:39:56.658Z,42.40
2018-01-03T07:42:29.156Z,42.50
2018-01-03T07:45:02.412Z,42.50
2018-01-03T07:47:35.047Z,42.50
2018-01-03T07:50:07.572Z,42.40
2018-01-03T07:52:40.035Z,42.40
2018-01-03T07:55:12.511Z,42.40
2018-01-03T07:57:45.087Z,42.40
2018-01-03T08:00:17.559Z,42.40
2018-01-03T08:02:50.029Z,42.40
2018-01-03T08:05:22.542Z,42.40
2018-01-03T08:07:55.111Z,42.40
2018-01-03T08:10:27.675Z,42.40
2018-01-03T08:13:00.176Z,42.50
2018-01-03T08:15:32.684Z,42.40
2018-01-03T08:18:05.321Z,42.30
2018-01-03T08:20:37.774Z,42.30
2018-01-03T08:23:10.394Z,42.40
2018-01-03T08:25:42.852Z,42.40
2018-01-03T08:28:15.375Z,42.40
2018-01-03T08:30:47.763Z,42.40
2018-01-03T08:33:21.039Z,42.50
2018-01-03T08:35:53.519Z,42.40
2018-01-03T08:38:26.038Z,42.40
2018-01-03T08:40:58.548Z,42.40
2018-01-03T08:43:31.112Z,42.40
2018-01-03T08:46:03.690Z,42.40
2018-01-03T08:48:36.196Z,42.40
2018-01-03T08:51:08.720Z,42.40
2018-01-03T08:53:41.255Z,42.40
2018-01-03T08:56:13.751Z,42.40
2018-01-03T08:58:46.266Z,42.40
2018-01-03T09:01:19.548Z,42.40
2018-01-03T09:03:52.880Z,42.80
2018-01-03T09:06:25.466Z,42.40
2018-01-03T09:08:57.946Z,42.40
2018-01-03T09:11:30.463Z,42.40
2018-01-03T09:14:02.860Z,42.40
2018-01-03T09:16:35.437Z,42.40
2018-01-03T09:19:08.039Z,42.40
2018-01-03T09:21:40.592Z,42.40
2018-01-03T09:24:13.892Z,42.40
2018-01-03T09:26:46.351Z,42.40
2018-01-03T09:29:18.960Z,42.40
2018-01-03T09:31:51.408Z,42.40
2018-01-03T09:34:23.800Z,42.30
2018-01-03T09:36:56.357Z,42.40
2018-01-03T09:39:29.635Z,42.40
2018-01-03T09:42:02.811Z,42.40
2018-01-03T09:44:35.339Z,42.30
2018-01-03T09:47:08.676Z,42.50
2018-01-03T09:49:41.987Z,42.90
2018-01-03T09:52:14.487Z,42.40
2018-01-03T09:54:47.074Z,42.40
2018-01-03T09:57:20.316Z,42.50
2018-01-03T09:59:53.624Z,42.50
2018-01-03T10:02:26.068Z,42.50
2018-01-03T10:04:59.391Z,42.70
2018-01-03T10:07:31.820Z,42.40
2018-01-03T10:10:04.378Z,42.50
2018-01-03T10:12:36.928Z,42.50
2018-01-03T10:15:09.275Z,42.40
2018-01-03T10:17:41.760Z,42.40
2018-01-03T10:20:14.228Z,42.50
2018-01-03T10:22:46.691Z,42.40
2018-01-03T10:25:20.091Z,42.80
2018-01-03T10:27:53.376Z,43.00
2018-01-03T10:30:25.787Z,42.30
2018-01-03T10:32:58.360Z,42.40
2018-01-03T10:35:31.632Z,42.50
2018-01-03T10:38:04.094Z,42.40
2018-01-03T10:40:36.455Z,42.40
2018-01-03T10:43:09.044Z,42.40
2018-01-03T10:45:41.503Z,42.40
2018-01-03T10:48:14.068Z,42.40
2018-01-03T10:50:47.405Z,42.50
2018-01-03T10:53:19.964Z,42.40
2018-01-03T10:55:54.000Z,42.40
2018-01-03T10:58:26.579Z,42.40
2018-01-03T11:00:59.255Z,42.40
2018-01-03T11:03:32.597Z,42.50
2018-01-03T11:06:05.816Z,42.40
2018-01-03T11:08:39.085Z,42.40
2018-01-03T11:11:11.700Z,42.30
2018-01-03T11:13:44.219Z,42.40
2018-01-03T11:16:17.547Z,42.50
2018-01-03T11:18:49.979Z,42.40
2018-01-03T11:21:22.483Z,42.40
2018-01-03T11:23:54.943Z,42.40
2018-01-03T11:26:27.484Z,42.40
2018-01-03T11:29:00.824Z,42.40
2018-01-03T11:31:33.323Z,42.30
2018-01-03T11:34:05.927Z,42.40
2018-01-03T11:36:38.392Z,42.40
2018-01-03T11:39:11.733Z,42.40
2018-01-03T11:41:45.040Z,42.40
2018-01-03T11:44:17.528Z,42.30
2018-01-03T11:46:50.028Z,42.40
2018-01-03T11:49:22.571Z,42.40
2018-01-03T11:51:55.036Z,42.30
2018-01-03T11:54:27.627Z,42.30
2018-01-03T11:57:00.195Z,42.40
2018-01-03T11:59:32.712Z,42.40
2018-01-03T12:02:05.275Z,42.30
2018-01-03T12:04:37.823Z,42.40
2018-01-03T12:07:10.408Z,42.30
2018-01-03T12:09:42.993Z,42.30
2018-01-03T12:12:16.366Z,42.40
2018-01-03T12:14:49.695Z,42.40
2018-01-03T12:17:22.166Z,42.30
2018-01-03T12:19:55.639Z,42.40
2018-01-03T12:22:28.821Z,42.30
2018-01-03T12:25:01.311Z,42.20
2018-01-03T12:27:33.929Z,42.30
2018-01-03T12:30:06.486Z,42.30
2018-01-03T12:32:38.999Z,42.30
2018-01-03T12:35:11.600Z,42.30
2018-01-03T12:37:43.944Z,42.30
2018-01-03T12:40:16.553Z,42.30
2018-01-03T12:42:49.076Z,42.30
2018-01-03T12:45:21.495Z,42.30
2018-01-03T12:47:54.052Z,42.30
2018-01-03T12:50:26.544Z,42.20
2018-01-03T12:52:58.892Z,42.30
2018-01-03T12:55:31.477Z,42.20
2018-01-03T12:58:04.758Z,42.30
2018-01-03T13:00:38.061Z,42.20
2018-01-03T13:03:11.384Z,42.20
2018-01-03T13:05:43.916Z,42.20
2018-01-03T13:08:16.493Z,42.20
2018-01-03T13:10:49.102Z,42.20
2018-01-03T13:13:21.700Z,42.20
2018-01-03T13:15:54.239Z,42.20
2018-01-03T13:18:26.844Z,42.20
2018-01-03T13:20:59.428Z,42.20
2018-01-03T13:23:31.982Z,42.10
2018-01-03T13:26:04.539Z,42.10
2018-01-03T13:28:37.082Z,42.00
2018-01-03T13:31:10.405Z,41.90
2018-01-03T13:33:42.936Z,41.80
2018-01-03T13:36:16.884Z,41.90
2018-01-03T13:38:49.399Z,41.80
2018-01-03T13:41:21.955Z,41.90
2018-01-03T13:43:54.454Z,41.80
2018-01-03T13:46:27.134Z,41.80
2018-01-03T13:48:59.570Z,41.80
2018-01-03T13:51:32.079Z,42.00
2018-01-03T13:54:04.640Z,41.80
2018-01-03T13:56:37.152Z,41.90
2018-01-03T13:59:09.668Z,41.90
2018-01-03T14:01:42.197Z,42.00
2018-01-03T14:04:14.719Z,41.90
2018-01-03T14:06:47.978Z,42.10
2018-01-03T14:09:20.592Z,42.00
2018-01-03T14:11:53.188Z,41.70
2018-01-03T14:14:25.798Z,41.90
2018-01-03T14:16:59.140Z,41.80
2018-01-03T14:19:31.722Z,41.90
2018-01-03T14:22:04.246Z,42.00
2018-01-03T14:24:36.759Z,42.00
2018-01-03T14:27:09.323Z,42.00
2018-01-03T14:29:41.713Z,42.10
2018-01-03T14:32:14.248Z,42.10
2018-01-03T14:34:46.639Z,42.00
2018-01-03T14:37:19.920Z,42.10
2018-01-03T14:39:52.397Z,42.10
2018-01-03T14:42:24.872Z,42.10
2018-01-03T14:44:57.464Z,42.00
2018-01-03T14:47:29.924Z,42.00
2018-01-03T14:50:02.516Z,42.10
2018-01-03T14:52:35.040Z,42.00
2018-01-03T14:55:07.561Z,42.00
2018-01-03T14:57:40.134Z,42.00
2018-01-03T15:00:12.580Z,42.00
2018-01-03T15:02:45.084Z,42.00
2018-01-03T15:05:18.443Z,42.00
2018-01-03T15:07:51.019Z,41.90
2018-01-03T15:10:23.640Z,42.00
2018-01-03T15:12:56.131Z,42.00
2018-01-03T15:15:28.760Z,42.00
2018-01-03T15:18:01.288Z,42.00
2018-01-03T15:20:33.756Z,42.00
2018-01-03T15:23:07.113Z,42.10
2018-01-03T15:25:39.602Z,42.00
2018-01-03T15:28:12.858Z,42.10
2018-01-03T15:30:45.470Z,41.90
2018-01-03T15:33:17.961Z,42.10
2018-01-03T15:35:50.523Z,42.00
2018-01-03T15:38:23.045Z,42.00
2018-01-03T15:40:55.466Z,41.90
2018-01-03T15:43:28.039Z,42.10
2018-01-03T15:46:00.588Z,42.00
2018-01-03T15:48:32.969Z,42.00
2018-01-03T15:51:05.551Z,42.00
2018-01-03T15:53:37.976Z,42.00
2018-01-03T15:56:11.242Z,42.00
2018-01-03T15:58:44.716Z,42.00
2018-01-03T16:01:17.326Z,42.00
2018-01-03T16:03:49.914Z,42.00
2018-01-03T16:06:22.415Z,41.90
2018-01-03T16:08:54.797Z,41.90
2018-01-03T16:11:27.344Z,42.00
2018-01-03T16:14:01.060Z,42.00
2018-01-03T16:16:33.550Z,42.00
2018-01-03T16:19:06.955Z,42.00
2018-01-03T16:21:39.511Z,42.00
2018-01-03T16:24:12.063Z,42.00
2018-01-03T16:26:45.282Z,42.00
2018-01-03T16:29:18.580Z,42.00
2018-01-03T16:31:51.046Z,42.00
2018-01-03T16:34:23.616Z,42.00
2018-01-03T16:36:56.035Z,42.00
2018-01-03T16:39:28.383Z,42.00
2018-01-03T16:42:02.395Z,42.00
2018-01-03T16:44:34.834Z,42.00
2018-01-03T16:47:07.344Z,42.00
2018-01-03T16:49:39.936Z,42.00
2018-01-03T16:52:13.320Z,42.00
2018-01-03T16:54:46.566Z,42.00
2018-01-03T16:57:19.084Z,41.90
2018-01-03T16:59:52.438Z,42.00
2018-01-03T17:02:25.767Z,42.00
2018-01-03T17:04:58.245Z,41.90
2018-01-03T17:07:30.900Z,41.90
2018-01-03T17:10:03.382Z,41.90
2018-01-03T17:12:36.699Z,42.20
2018-01-03T17:15:09.133Z,41.90
2018-01-03T17:17:41.787Z,41.90
2018-01-03T17:20:14.282Z,41.90
2018-01-03T17:22:46.861Z,41.90
2018-01-03T17:25:19.394Z,41.90
2018-01-03T17:27:52.001Z,41.90
2018-01-03T17:30:24.488Z,41.90
2018-01-03T17:32:57.685Z,42.00
2018-01-03T17:35:30.257Z,41.90
2018-01-03T17:38:02.853Z,41.90
2018-01-03T17:40:35.469Z,41.90
2018-01-03T17:43:07.881Z,42.00
2018-01-03T17:45:40.417Z,41.90
2018-01-03T17:48:12.928Z,41.90
2018-01-03T17:50:45.530Z,41.90
2018-01-03T17:53:18.134Z,41.90
2018-01-03T17:55:50.661Z,41.90
2018-01-03T17:58:23.268Z,41.90
2018-01-03T18:00:55.928Z,41.90
2018-01-03T18:03:28.580Z,41.90
2018-01-03T18:06:01.078Z,41.90
2018-01-03T18:08:33.633Z,41.90
2018-01-03T18:11:06.280Z,41.90
2018-01-03T18:13:39.499Z,41.90
2018-01-03T18:16:12.083Z,41.90
2018-01-03T18:18:45.432Z,41.90
2018-01-03T18:21:17.968Z,41.90
2018-01-03T18:23:50.596Z,41.90
2018-01-03T18:26:23.122Z,41.80
2018-01-03T18:28:55.608Z,41.80
2018-01-03T18:31:28.979Z,41.80
2018-01-03T18:34:01.459Z,41.90
2018-01-03T18:36:34.655Z,41.90
2018-01-03T18:39:07.179Z,41.80
2018-01-03T18:41:40.572Z,41.80
2018-01-03T18:44:13.152Z,41.80
2018-01-03T18:46:45.616Z,41.80
2018-01-03T18:49:18.161Z,41.80
2018-01-03T18:51:50.674Z,41.90
2018-01-03T18:54:23.201Z,41.80
2018-01-03T18:56:55.758Z,41.70
2018-01-03T18:59:29.065Z,42.10
2018-01-03T19:02:02.339Z,41.90
2018-01-03T19:04:34.856Z,41.80
2018-01-03T19:07:08.115Z,41.90
2018-01-03T19:09:40.656Z,41.80
2018-01-03T19:12:13.133Z,41.80
2018-01-03T19:14:46.367Z,41.80
2018-01-03T19:17:19.659Z,41.80
2018-01-03T19:19:52.131Z,41.80
2018-01-03T19:22:24.691Z,41.80
2018-01-03T19:24:57.235Z,41.80
2018-01-03T19:27:30.613Z,41.90
2018-01-03T19:30:03.863Z,41.90
2018-01-03T19:32:37.137Z,41.90
2018-01-03T19:35:10.436Z,41.90
2018-01-03T19:37:44.831Z,41.90
2018-01-03T19:40:17.348Z,41.80
2018-01-03T19:42:49.947Z,41.80
2018-01-03T19:45:22.527Z,41.80
2018-01-03T19:47:55.810Z,42.40
2018-01-03T19:50:28.290Z,41.90
2018-01-03T19:53:00.763Z,41.80
2018-01-03T19:55:34.038Z,41.80
2018-01-03T19:58:06.579Z,41.80
2018-01-03T20:00:39.095Z,41.80
2018-01-03T20:03:11.665Z,41.80
2018-01-03T20:05:44.955Z,41.80
2018-01-03T20:08:18.930Z,41.80
2018-01-03T20:10:51.475Z,41.80
2018-01-03T20:13:23.979Z,41.80
2018-01-03T20:15:57.273Z,41.80
2018-01-03T20:18:30.562Z,41.80
2018-01-03T20:21:03.139Z,41.80
2018-01-03T20:23:35.761Z,41.80
2018-01-03T20:26:09.153Z,41.80
2018-01-03T20:28:41.556Z,41.80
2018-01-03T20:31:14.117Z,41.80
2018-01-03T20:33:46.614Z,41.80
2018-01-03T20:36:19.224Z,41.80
2018-01-03T20:38:51.787Z,41.80
2018-01-03T20:41:25.279Z,41.80
2018-01-03T20:43:57.735Z,41.80
2018-01-03T20:46:31.084Z,41.80
2018-01-03T20:49:04.338Z,41.80
2018-01-03T20:51:36.859Z,41.80
2018-01-03T20:54:09.434Z,41.80
2018-01-03T20:56:41.960Z,41.80
2018-01-03T20:59:15.260Z,42.30
2018-01-03T21:01:47.916Z,41.80
2018-01-03T21:04:20.439Z,41.80
2018-01-03T21:06:52.984Z,41.80
2018-01-03T21:09:25.510Z,41.80
2018-01-03T21:11:58.011Z,41.80
2018-01-03T21:14:30.633Z,41.80
2018-01-03T21:17:03.282Z,41.80
2018-01-03T21:19:36.487Z,41.80
2018-01-03T21:22:09.000Z,41.70
2018-01-03T21:24:41.503Z,41.80
2018-01-03T21:27:14.159Z,41.80
2018-01-03T21:29:46.671Z,41.80
2018-01-03T21:32:19.247Z,41.80
2018-01-03T21:34:51.807Z,41.80
2018-01-03T21:37:25.155Z,41.80
2018-01-03T21:39:57.765Z,41.80
2018-01-03T21:42:31.109Z,41.80
2018-01-03T21:45:04.396Z,42.40
2018-01-03T21:47:37.042Z,41.80
2018-01-03T21:50:09.542Z,41.80
2018-01-03T21:52:42.099Z,41.80
2018-01-03T21:55:14.648Z,41.80
2018-01-03T21:57:47.201Z,41.80
2018-01-03T22:00:19.727Z,41.80
2018-01-03T22:02:52.260Z,41.80
2018-01-03T22:05:24.816Z,41.80
2018-01-03T22:07:57.440Z,41.80
2018-01-03T22:10:29.970Z,41.80
2018-01-03T22:13:03.325Z,41.80
2018-01-03T22:15:35.869Z,41.80
2018-01-03T22:18:08.471Z,41.70
2018-01-03T22:20:41.784Z,41.80
2018-01-03T22:23:14.213Z,41.80
2018-01-03T22:25:46.768Z,41.80
2018-01-03T22:28:19.322Z,41.80
2018-01-03T22:30:52.727Z,41.80
2018-01-03T22:33:25.992Z,41.80
2018-01-03T22:35:58.411Z,41.80
2018-01-03T22:38:30.953Z,41.80
2018-01-03T22:41:04.265Z,41.80
2018-01-03T22:43:36.907Z,41.70
2018-01-03T22:46:09.415Z,41.80
2018-01-03T22:48:41.959Z,41.80
2018-01-03T22:51:15.327Z,42.00
2018-01-03T22:53:48.563Z,41.80
2018-01-03T22:56:21.014Z,41.80
2018-01-03T22:58:53.623Z,41.80
2018-01-03T23:01:26.139Z,41.80
2018-01-03T23:03:58.654Z,41.80
2018-01-03T23:06:31.295Z,41.70
2018-01-03T23:09:04.006Z,41.80
2018-01-03T23:11:37.268Z,41.80
2018-01-03T23:14:09.926Z,41.70
2018-01-03T23:16:42.478Z,41.80
2018-01-03T23:19:15.729Z,41.80
2018-01-03T23:21:49.031Z,41.80
2018-01-03T23:24:22.318Z,41.80
2018-01-03T23:26:54.766Z,41.70
2018-01-03T23:29:27.335Z,41.80
2018-01-03T23:32:00.635Z,41.80
2018-01-03T23:34:33.215Z,41.70
2018-01-03T23:37:05.578Z,41.70
2018-01-03T23:39:38.118Z,41.80
2018-01-03T23:42:10.688Z,41.80
2018-01-03T23:44:43.191Z,41.70
2018-01-03T23:47:15.728Z,41.80
2018-01-03T23:49:49.121Z,41.80
2018-01-03T23:52:21.603Z,41.70
2018-01-03T23:54:55.624Z,41.70
2018-01-03T23:57:28.153Z,41.70
